SAMR/AFA METAR and TAF weather

Enter ICAO airport designator
Station Type Date Time Source
SAMR METAR 2022/05/12 06:00 UTC NOAA

SAMR 120600Z 27008KT CAVOK 08/05 Q1015


Station Type Date Time Source
SAMR Decoded METAR 2022/05/12 06:00 UTC NOAA

San Rafael Aerodrome, Argentina (SAMR) 34-35S 068-24W 748M
May 12, 2022 - 02:00 AM EDT / 2022.05.12 0600 UTC
Wind: from the W (270 degrees) at 9 MPH (8 KT):0
Visibility: greater than 7 mile(s):0
Temperature: 46 F (8 C)
Dew Point: 41 F (5 C)
Relative Humidity: 81%
Pressure (altimeter): 29.97 in. Hg (1015 hPa)
ob: SAMR 120600Z 27008KT CAVOK 08/05 Q1015
cycle: 6

Station Type Date Time Source
SAMR TAF 2022/04/18 00:09 UTC NOAA

TAF TAF SAMR 172300Z 1800/1824 09010KT CAVOK TX27/1820Z TN09/1810Z
BECMG 1804/1806 VRB03KT
BECMG 1816/1818 36010KT

Example: see airport list